createdAt,value
2018-08-11T00:00:49.387Z,1000.7
2018-08-11T00:01:50.781Z,1000.7
2018-08-11T00:02:52.159Z,1000.7
2018-08-11T00:03:53.532Z,1000.7
2018-08-11T00:04:54.907Z,1000.7
2018-08-11T00:05:56.287Z,1000.7
2018-08-11T00:06:57.703Z,1000.7
2018-08-11T00:07:59.071Z,1000.7
2018-08-11T00:09:00.458Z,1000.7
2018-08-11T00:10:01.844Z,1000.7
2018-08-11T00:11:03.239Z,1000.7
2018-08-11T00:12:05.446Z,1000.7
2018-08-11T00:13:05.983Z,1000.6
2018-08-11T00:14:07.382Z,1000.6
2018-08-11T00:15:08.818Z,1000.6
2018-08-11T00:16:10.479Z,1000.6
2018-08-11T00:17:13.459Z,1000.6
2018-08-11T00:18:14.050Z,1000.6
2018-08-11T00:19:15.435Z,1000.6
2018-08-11T00:20:16.829Z,1000.6
2018-08-11T00:21:18.218Z,1000.6
2018-08-11T00:22:19.595Z,1000.6
2018-08-11T00:23:20.988Z,1000.5
2018-08-11T00:24:22.365Z,1000.6
2018-08-11T00:25:23.749Z,1000.6
2018-08-11T00:26:25.132Z,1000.6
2018-08-11T00:27:26.522Z,1000.6
2018-08-11T00:28:27.915Z,1000.7
2018-08-11T00:29:29.305Z,1000.7
2018-08-11T00:30:30.687Z,1000.7
2018-08-11T00:31:32.069Z,1000.6
2018-08-11T00:32:33.465Z,1000.7
2018-08-11T00:33:34.843Z,1000.7
2018-08-11T00:34:36.221Z,1000.7
2018-08-11T00:35:37.597Z,1000.7
2018-08-11T00:36:38.971Z,1000.7
2018-08-11T00:37:40.365Z,1000.7
2018-08-11T00:38:41.751Z,1000.8
2018-08-11T00:39:43.139Z,1000.7
2018-08-11T00:40:44.534Z,1000.8
2018-08-11T00:41:45.930Z,1000.7
2018-08-11T00:42:47.320Z,1000.8
2018-08-11T00:43:48.699Z,1000.7
2018-08-11T00:44:50.084Z,1000.7
2018-08-11T00:45:51.517Z,1000.7
2018-08-11T00:46:52.921Z,1000.7
2018-08-11T00:47:54.331Z,1000.7
2018-08-11T00:48:55.712Z,1000.7
2018-08-11T00:49:57.100Z,1000.7
2018-08-11T00:50:58.497Z,1000.7
2018-08-11T00:51:59.890Z,1000.7
2018-08-11T00:53:01.292Z,1000.7
2018-08-11T00:54:02.714Z,1000.7
2018-08-11T00:55:04.095Z,1000.7
2018-08-11T00:56:05.487Z,1000.7
2018-08-11T00:57:06.864Z,1000.8
2018-08-11T00:58:08.245Z,1000.7
2018-08-11T00:59:09.637Z,1000.7
2018-08-11T01:00:11.033Z,1000.7
2018-08-11T01:01:12.418Z,1000.7
2018-08-11T01:02:13.812Z,1000.7
2018-08-11T01:03:15.193Z,1000.8
2018-08-11T01:04:16.638Z,1000.7
2018-08-11T01:05:18.034Z,1000.7
2018-08-11T01:06:19.430Z,1000.7
2018-08-11T01:07:20.822Z,1000.8
2018-08-11T01:08:22.196Z,1000.7
2018-08-11T01:09:23.576Z,1000.7
2018-08-11T01:10:24.957Z,1000.7
2018-08-11T01:11:26.353Z,1000.7
2018-08-11T01:12:27.735Z,1000.8
2018-08-11T01:13:29.188Z,1000.8
2018-08-11T01:14:30.606Z,1000.8
2018-08-11T01:15:31.996Z,1000.8
2018-08-11T01:16:33.411Z,1000.8
2018-08-11T01:17:34.802Z,1000.8
2018-08-11T01:18:36.188Z,1000.8
2018-08-11T01:19:37.551Z,1000.8
2018-08-11T01:20:38.933Z,1000.8
2018-08-11T01:21:40.310Z,1000.8
2018-08-11T01:22:41.703Z,1000.8
2018-08-11T01:23:43.091Z,1000.8
2018-08-11T01:24:44.489Z,1000.8
2018-08-11T01:25:45.878Z,1000.8
2018-08-11T01:26:47.255Z,1000.8
2018-08-11T01:27:48.647Z,1000.8
2018-08-11T01:28:50.035Z,1000.8
2018-08-11T01:29:51.423Z,1000.9
2018-08-11T01:30:52.804Z,1000.8
2018-08-11T01:31:54.183Z,1000.8
2018-08-11T01:32:55.577Z,1000.8
2018-08-11T01:33:56.974Z,1000.9
2018-08-11T01:34:58.369Z,1000.8
2018-08-11T01:35:59.757Z,1000.8
2018-08-11T01:37:01.181Z,1000.9
2018-08-11T01:38:02.589Z,1000.8
2018-08-11T01:39:03.998Z,1000.8
2018-08-11T01:40:05.380Z,1000.8
2018-08-11T01:41:06.790Z,1000.9
2018-08-11T01:42:08.182Z,1000.8
2018-08-11T01:43:09.579Z,1000.8
2018-08-11T01:44:10.971Z,1000.8
2018-08-11T01:45:12.350Z,1000.8
2018-08-11T01:46:13.766Z,1000.8
2018-08-11T01:47:15.157Z,1000.8
2018-08-11T01:48:16.549Z,1000.8
2018-08-11T01:49:17.970Z,1000.8
2018-08-11T01:50:19.363Z,1000.9
2018-08-11T01:51:20.786Z,1000.9
2018-08-11T01:52:22.194Z,1000.9
2018-08-11T01:53:23.629Z,1000.9
2018-08-11T01:54:24.974Z,1000.9
2018-08-11T01:55:26.403Z,1000.9
2018-08-11T01:56:28.345Z,1000.9
2018-08-11T01:57:29.737Z,1000.8
2018-08-11T01:58:31.120Z,1000.9
2018-08-11T01:59:32.488Z,1000.9
2018-08-11T02:00:33.876Z,1000.8
2018-08-11T02:01:35.420Z,1000.9
2018-08-11T02:02:36.807Z,1000.8
2018-08-11T02:03:38.199Z,1000.8
2018-08-11T02:04:39.589Z,1000.8
2018-08-11T02:05:40.969Z,1000.8
2018-08-11T02:06:42.355Z,1000.8
2018-08-11T02:07:43.735Z,1000.8
2018-08-11T02:08:45.114Z,1000.8
2018-08-11T02:09:46.555Z,1000.8
2018-08-11T02:10:47.987Z,1000.8
2018-08-11T02:11:49.367Z,1000.9
2018-08-11T02:12:50.785Z,1000.8
2018-08-11T02:13:52.164Z,1000.9
2018-08-11T02:14:53.576Z,1000.9
2018-08-11T02:15:54.968Z,1000.9
2018-08-11T02:16:56.383Z,1000.9
2018-08-11T02:17:57.841Z,1000.9
2018-08-11T02:18:59.221Z,1000.8
2018-08-11T02:20:00.611Z,1000.9
2018-08-11T02:21:02.018Z,1000.8
2018-08-11T02:22:03.398Z,1000.9
2018-08-11T02:23:04.820Z,1000.8
2018-08-11T02:24:06.198Z,1000.8
2018-08-11T02:25:07.596Z,1000.8
2018-08-11T02:26:09.067Z,1000.8
2018-08-11T02:27:10.454Z,1000.9
2018-08-11T02:28:11.933Z,1000.8
2018-08-11T02:29:13.286Z,1000.8
2018-08-11T02:30:14.667Z,1000.8
2018-08-11T02:31:16.057Z,1000.8
2018-08-11T02:32:17.440Z,1000.9
2018-08-11T02:33:18.836Z,1000.9
2018-08-11T02:34:20.292Z,1000.9
2018-08-11T02:35:21.551Z,1000.8
2018-08-11T02:36:22.940Z,1000.8
2018-08-11T02:37:24.333Z,1000.9
2018-08-11T02:38:25.791Z,1000.9
2018-08-11T02:39:27.134Z,1000.9
2018-08-11T02:40:28.522Z,1000.8
2018-08-11T02:41:29.903Z,1000.8
2018-08-11T02:42:31.300Z,1000.8
2018-08-11T02:43:32.724Z,1000.8
2018-08-11T02:44:34.109Z,1000.8
2018-08-11T02:45:35.486Z,1000.8
2018-08-11T02:46:36.898Z,1000.8
2018-08-11T02:47:38.299Z,1000.8
2018-08-11T02:48:39.703Z,1000.8
2018-08-11T02:49:41.103Z,1000.8
2018-08-11T02:50:42.483Z,1000.8
2018-08-11T02:51:43.877Z,1000.8
2018-08-11T02:52:45.346Z,1000.8
2018-08-11T02:53:46.733Z,1000.8
2018-08-11T02:54:48.110Z,1000.8
2018-08-11T02:55:49.500Z,1000.8
2018-08-11T02:56:50.890Z,1000.8
2018-08-11T02:57:52.301Z,1000.8
2018-08-11T02:58:53.690Z,1000.9
2018-08-11T02:59:55.199Z,1000.9
2018-08-11T03:00:56.599Z,1000.8
2018-08-11T03:01:57.975Z,1000.9
2018-08-11T03:02:59.364Z,1000.9
2018-08-11T03:04:01.424Z,1000.9
2018-08-11T03:05:02.814Z,1000.9
2018-08-11T03:06:04.222Z,1000.9
2018-08-11T03:07:05.612Z,1000.9
2018-08-11T03:08:07.059Z,1000.9
2018-08-11T03:09:08.437Z,1000.9
2018-08-11T03:10:09.833Z,1000.9
2018-08-11T03:11:11.213Z,1000.9
2018-08-11T03:12:12.624Z,1000.9
2018-08-11T03:13:14.002Z,1000.9
2018-08-11T03:14:15.393Z,1000.9
2018-08-11T03:15:16.786Z,1000.9
2018-08-11T03:16:18.183Z,1000.9
2018-08-11T03:17:19.593Z,1000.9
2018-08-11T03:18:20.974Z,1000.9
2018-08-11T03:19:22.385Z,1000.9
2018-08-11T03:20:23.929Z,1000.9
2018-08-11T03:21:25.329Z,1000.9
2018-08-11T03:22:26.730Z,1001.0
2018-08-11T03:23:28.118Z,1001.0
2018-08-11T03:24:29.525Z,1001.0
2018-08-11T03:25:30.916Z,1000.9
2018-08-11T03:26:32.306Z,1000.9
2018-08-11T03:27:33.681Z,1000.9
2018-08-11T03:28:35.070Z,1000.9
2018-08-11T03:29:36.453Z,1001.0
2018-08-11T03:30:37.892Z,1000.9
2018-08-11T03:31:39.397Z,1000.9
2018-08-11T03:32:40.789Z,1000.9
2018-08-11T03:33:42.186Z,1000.9
2018-08-11T03:34:43.607Z,1000.9
2018-08-11T03:35:44.989Z,1000.9
2018-08-11T03:36:46.377Z,1001.0
2018-08-11T03:37:47.758Z,1001.0
2018-08-11T03:38:49.157Z,1001.0
2018-08-11T03:39:50.523Z,1001.0
2018-08-11T03:40:51.916Z,1001.0
2018-08-11T03:41:53.363Z,1001.0
2018-08-11T03:42:54.776Z,1001.0
2018-08-11T03:43:56.172Z,1001.0
2018-08-11T03:44:57.547Z,1001.0
2018-08-11T03:45:58.952Z,1001.0
2018-08-11T03:47:00.342Z,1001.1
2018-08-11T03:48:01.709Z,1001.1
2018-08-11T03:49:03.110Z,1001.1
2018-08-11T03:50:04.516Z,1001.1
2018-08-11T03:51:05.932Z,1001.1
2018-08-11T03:52:07.328Z,1001.1
2018-08-11T03:53:08.752Z,1001.1
2018-08-11T03:54:10.127Z,1001.1
2018-08-11T03:55:11.507Z,1001.1
2018-08-11T03:56:12.904Z,1001.1
2018-08-11T03:57:14.295Z,1001.1
2018-08-11T03:58:15.675Z,1001.1
2018-08-11T03:59:17.084Z,1001.1
2018-08-11T04:00:18.492Z,1001.1
2018-08-11T04:01:19.884Z,1001.1
2018-08-11T04:02:21.296Z,1001.1
2018-08-11T04:03:22.665Z,1001.1
2018-08-11T04:04:24.064Z,1001.1
2018-08-11T04:05:25.442Z,1001.1
2018-08-11T04:06:26.828Z,1001.1
2018-08-11T04:07:28.239Z,1001.2
2018-08-11T04:08:29.616Z,1001.2
2018-08-11T04:09:31.015Z,1001.2
2018-08-11T04:10:32.400Z,1001.2
2018-08-11T04:11:33.789Z,1001.2
2018-08-11T04:12:35.204Z,1001.2
2018-08-11T04:13:36.603Z,1001.2
2018-08-11T04:14:38.001Z,1001.3
2018-08-11T04:15:39.378Z,1001.3
2018-08-11T04:16:40.750Z,1001.3
2018-08-11T04:17:42.133Z,1001.3
2018-08-11T04:18:43.508Z,1001.3
2018-08-11T04:19:44.918Z,1001.3
2018-08-11T04:20:46.295Z,1001.3
2018-08-11T04:21:47.680Z,1001.2
2018-08-11T04:22:49.074Z,1001.3
2018-08-11T04:23:50.482Z,1001.4
2018-08-11T04:24:51.893Z,1001.3
2018-08-11T04:25:53.286Z,1001.3
2018-08-11T04:26:54.673Z,1001.4
2018-08-11T04:27:56.066Z,1001.3
2018-08-11T04:28:57.446Z,1001.4
2018-08-11T04:29:58.841Z,1001.3
2018-08-11T04:31:00.220Z,1001.4
2018-08-11T04:32:01.614Z,1001.4
2018-08-11T04:33:02.994Z,1001.4
2018-08-11T04:34:04.457Z,1001.4
2018-08-11T04:35:05.783Z,1001.4
2018-08-11T04:36:07.190Z,1001.4
2018-08-11T04:37:08.572Z,1001.4
2018-08-11T04:38:09.958Z,1001.4
2018-08-11T04:39:11.349Z,1001.4
2018-08-11T04:40:12.758Z,1001.3
2018-08-11T04:41:14.141Z,1001.4
2018-08-11T04:42:15.537Z,1001.4
2018-08-11T04:43:16.914Z,1001.4
2018-08-11T04:44:18.295Z,1001.4
2018-08-11T04:45:19.689Z,1001.4
2018-08-11T04:46:21.073Z,1001.5
2018-08-11T04:47:22.463Z,1001.4
2018-08-11T04:48:23.858Z,1001.5
2018-08-11T04:49:25.243Z,1001.5
2018-08-11T04:50:26.630Z,1001.5
2018-08-11T04:51:28.023Z,1001.5
2018-08-11T04:52:29.414Z,1001.5
2018-08-11T04:53:30.864Z,1001.5
2018-08-11T04:54:32.260Z,1001.5
2018-08-11T04:55:33.658Z,1001.5
2018-08-11T04:56:35.043Z,1001.5
2018-08-11T04:57:36.426Z,1001.6
2018-08-11T04:58:37.816Z,1001.5
2018-08-11T04:59:39.198Z,1001.5
2018-08-11T05:00:40.595Z,1001.6
2018-08-11T05:01:41.995Z,1001.5
2018-08-11T05:02:43.387Z,1001.6
2018-08-11T05:03:44.774Z,1001.5
2018-08-11T05:04:46.189Z,1001.6
2018-08-11T05:05:47.562Z,1001.6
2018-08-11T05:06:48.950Z,1001.6
2018-08-11T05:07:50.347Z,1001.6
2018-08-11T05:08:51.730Z,1001.7
2018-08-11T05:09:53.143Z,1001.6
2018-08-11T05:10:54.527Z,1001.7
2018-08-11T05:11:55.908Z,1001.6
2018-08-11T05:12:57.298Z,1001.7
2018-08-11T05:13:58.676Z,1001.7
2018-08-11T05:15:00.073Z,1001.7
2018-08-11T05:16:01.497Z,1001.7
2018-08-11T05:17:02.881Z,1001.7
2018-08-11T05:18:04.707Z,1001.7
2018-08-11T05:19:06.078Z,1001.7
2018-08-11T05:20:07.461Z,1001.7
2018-08-11T05:21:08.844Z,1001.8
2018-08-11T05:22:10.244Z,1001.8
2018-08-11T05:23:11.673Z,1001.8
2018-08-11T05:24:13.075Z,1001.8
2018-08-11T05:25:15.003Z,1001.8
2018-08-11T05:26:16.437Z,1001.8
2018-08-11T05:27:17.788Z,1001.8
2018-08-11T05:28:19.199Z,1001.8
2018-08-11T05:29:20.592Z,1001.8
2018-08-11T05:30:21.992Z,1001.8
2018-08-11T05:31:23.381Z,1001.8
2018-08-11T05:32:24.771Z,1001.8
2018-08-11T05:33:26.175Z,1001.9
2018-08-11T05:34:27.562Z,1001.9
2018-08-11T05:35:28.952Z,1001.9
2018-08-11T05:36:30.338Z,1001.9
2018-08-11T05:37:31.786Z,1001.9
2018-08-11T05:38:33.186Z,1001.9
2018-08-11T05:39:34.583Z,1001.8
2018-08-11T05:40:36.013Z,1001.8
2018-08-11T05:41:37.411Z,1001.8
2018-08-11T05:42:38.807Z,1001.8
2018-08-11T05:43:40.196Z,1001.8
2018-08-11T05:44:41.580Z,1001.9
2018-08-11T05:45:42.979Z,1001.9
2018-08-11T05:46:44.373Z,1001.9
2018-08-11T05:47:45.759Z,1001.9
2018-08-11T05:48:47.144Z,1001.8
2018-08-11T05:49:48.542Z,1001.8
2018-08-11T05:50:49.939Z,1001.8
2018-08-11T05:51:51.331Z,1001.8
2018-08-11T05:52:52.730Z,1001.9
2018-08-11T05:53:54.116Z,1001.9
2018-08-11T05:54:55.517Z,1001.9
2018-08-11T05:55:56.910Z,1001.9
2018-08-11T05:56:58.304Z,1001.9
2018-08-11T05:57:59.697Z,1001.9
2018-08-11T05:59:01.077Z,1001.9
2018-08-11T06:00:02.470Z,1001.9
2018-08-11T06:01:03.857Z,1001.9
2018-08-11T06:02:05.250Z,1002.0
2018-08-11T06:03:06.644Z,1001.9
2018-08-11T06:04:08.197Z,1001.9
2018-08-11T06:05:09.412Z,1002.0
2018-08-11T06:06:10.809Z,1001.9
2018-08-11T06:07:12.191Z,1001.9
2018-08-11T06:08:13.569Z,1002.1
2018-08-11T06:09:14.958Z,1002.0
2018-08-11T06:10:16.355Z,1002.0
2018-08-11T06:11:17.765Z,1002.0
2018-08-11T06:12:19.170Z,1002.0
2018-08-11T06:13:20.558Z,1002.1
2018-08-11T06:14:21.955Z,1002.0
2018-08-11T06:15:23.345Z,1002.1
2018-08-11T06:16:24.743Z,1002.0
2018-08-11T06:17:26.185Z,1002.1
2018-08-11T06:18:27.561Z,1002.1
2018-08-11T06:19:28.945Z,1002.2
2018-08-11T06:20:30.322Z,1002.2
2018-08-11T06:21:31.724Z,1002.1
2018-08-11T06:22:33.132Z,1002.1
2018-08-11T06:23:34.528Z,1002.3
2018-08-11T06:24:35.911Z,1002.3
2018-08-11T06:25:37.287Z,1002.1
2018-08-11T06:26:38.668Z,1002.1
2018-08-11T06:27:40.064Z,1002.1
2018-08-11T06:28:41.459Z,1002.2
2018-08-11T06:29:42.852Z,1002.2
2018-08-11T06:30:44.268Z,1002.1
2018-08-11T06:31:45.687Z,1002.2
2018-08-11T06:32:47.058Z,1002.2
2018-08-11T06:33:48.462Z,1002.2
2018-08-11T06:34:49.855Z,1002.1
2018-08-11T06:35:51.239Z,1002.2
2018-08-11T06:36:52.624Z,1002.2
2018-08-11T06:37:54.016Z,1002.2
2018-08-11T06:38:55.398Z,1002.1
2018-08-11T06:39:56.793Z,1002.1
2018-08-11T06:40:58.304Z,1002.2
2018-08-11T06:41:59.596Z,1002.1
2018-08-11T06:43:00.990Z,1002.2
2018-08-11T06:44:02.365Z,1002.0
2018-08-11T06:45:03.764Z,1002.1
2018-08-11T06:46:05.181Z,1002.0
2018-08-11T06:47:06.663Z,1002.0
2018-08-11T06:48:07.969Z,1002.1
2018-08-11T06:49:09.367Z,1002.0
2018-08-11T06:50:10.750Z,1002.2
2018-08-11T06:51:12.154Z,1002.0
2018-08-11T06:52:13.559Z,1002.0
2018-08-11T06:53:14.946Z,1002.1
2018-08-11T06:54:16.340Z,1002.0
2018-08-11T06:55:17.757Z,1002.0
2018-08-11T06:56:19.171Z,1002.0
2018-08-11T06:57:20.562Z,1002.0
2018-08-11T06:58:21.961Z,1001.9
2018-08-11T06:59:23.392Z,1002.0
2018-08-11T07:00:24.765Z,1002.0
2018-08-11T07:01:26.155Z,1002.0
2018-08-11T07:02:27.558Z,1002.0
2018-08-11T07:03:28.955Z,1002.0
2018-08-11T07:04:30.355Z,1002.1
2018-08-11T07:05:31.766Z,1002.0
2018-08-11T07:06:33.184Z,1002.1
2018-08-11T07:07:34.520Z,1002.0
2018-08-11T07:08:35.913Z,1002.0
2018-08-11T07:09:37.340Z,1002.0
2018-08-11T07:10:38.733Z,1002.1
2018-08-11T07:11:40.182Z,1002.0
2018-08-11T07:12:41.571Z,1002.0
2018-08-11T07:13:42.972Z,1002.0
2018-08-11T07:14:44.362Z,1002.0
2018-08-11T07:15:45.753Z,1002.1
2018-08-11T07:16:47.148Z,1002.0
2018-08-11T07:17:48.580Z,1002.1
2018-08-11T07:18:49.965Z,1002.1
2018-08-11T07:19:51.365Z,1002.1
2018-08-11T07:20:52.762Z,1002.1
2018-08-11T07:21:54.154Z,1002.0
2018-08-11T07:22:55.541Z,1002.1
2018-08-11T07:23:56.929Z,1002.2
2018-08-11T07:24:58.323Z,1002.1
2018-08-11T07:25:59.724Z,1002.3
2018-08-11T07:27:01.099Z,1002.2
2018-08-11T07:28:02.500Z,1002.2
2018-08-11T07:29:04.033Z,1002.1
2018-08-11T07:30:05.432Z,1002.1
2018-08-11T07:31:06.810Z,1002.1
2018-08-11T07:32:08.232Z,1002.2
2018-08-11T07:33:09.654Z,1002.3
2018-08-11T07:34:11.205Z,1002.0
2018-08-11T07:35:12.767Z,1002.3
2018-08-11T07:36:14.179Z,1002.1
2018-08-11T07:37:15.548Z,1002.2
2018-08-11T07:38:16.943Z,1002.1
2018-08-11T07:39:18.357Z,1002.1
2018-08-11T07:40:19.732Z,1002.1
2018-08-11T07:41:21.129Z,1002.1
2018-08-11T07:42:22.559Z,1002.1
2018-08-11T07:43:23.981Z,1002.1
2018-08-11T07:44:25.297Z,1002.2
2018-08-11T07:45:26.765Z,1002.1
2018-08-11T07:46:28.163Z,1002.1
2018-08-11T07:47:29.566Z,1002.2
2018-08-11T07:48:30.962Z,1002.2
2018-08-11T07:49:32.353Z,1002.2
2018-08-11T07:50:33.733Z,1002.1
2018-08-11T07:51:35.131Z,1002.1
2018-08-11T07:52:36.727Z,1002.2
2018-08-11T07:53:38.120Z,1002.2
2018-08-11T07:54:39.967Z,1002.0
2018-08-11T07:55:41.431Z,1002.1
2018-08-11T07:56:42.973Z,1002.1
2018-08-11T07:57:44.532Z,1002.3
2018-08-11T07:58:45.817Z,1002.3
2018-08-11T07:59:47.205Z,1002.1
2018-08-11T08:00:48.613Z,1002.1
2018-08-11T08:01:50.019Z,1002.1
2018-08-11T08:02:51.418Z,1002.1
2018-08-11T08:03:52.817Z,1002.1
2018-08-11T08:04:54.209Z,1002.1
2018-08-11T08:05:55.603Z,1002.3
2018-08-11T08:06:56.997Z,1002.2
2018-08-11T08:07:58.424Z,1002.4
2018-08-11T08:08:59.799Z,1002.2
2018-08-11T08:10:01.192Z,1002.2
2018-08-11T08:11:02.598Z,1002.2
2018-08-11T08:12:03.994Z,1002.3
2018-08-11T08:13:05.393Z,1002.2
2018-08-11T08:14:06.820Z,1002.2
2018-08-11T08:15:08.223Z,1002.2
2018-08-11T08:16:09.624Z,1002.1
2018-08-11T08:17:11.010Z,1002.2
2018-08-11T08:18:12.401Z,1002.3
2018-08-11T08:19:13.787Z,1002.3
2018-08-11T08:20:15.161Z,1002.2
2018-08-11T08:21:16.540Z,1002.1
2018-08-11T08:22:17.938Z,1002.1
2018-08-11T08:23:19.340Z,1002.1
2018-08-11T08:24:21.353Z,1002.3
2018-08-11T08:25:22.751Z,1002.1
2018-08-11T08:26:24.278Z,1002.1
2018-08-11T08:27:25.531Z,1002.1
2018-08-11T08:28:26.921Z,1002.2
2018-08-11T08:29:28.306Z,1002.2
2018-08-11T08:30:29.733Z,1002.1
2018-08-11T08:31:31.183Z,1002.1
2018-08-11T08:32:32.542Z,1002.1
2018-08-11T08:33:33.938Z,1002.2
2018-08-11T08:34:35.367Z,1002.2
2018-08-11T08:35:36.748Z,1002.2
2018-08-11T08:36:38.174Z,1002.2
2018-08-11T08:37:39.587Z,1002.2
2018-08-11T08:38:40.982Z,1002.2
2018-08-11T08:39:42.373Z,1002.1
2018-08-11T08:40:43.779Z,1002.2
2018-08-11T08:41:45.239Z,1002.2
2018-08-11T08:42:46.637Z,1002.2
2018-08-11T08:43:48.043Z,1002.2
2018-08-11T08:44:49.431Z,1002.2
2018-08-11T08:45:50.881Z,1002.2
2018-08-11T08:46:52.274Z,1002.2
2018-08-11T08:47:53.692Z,1002.2
2018-08-11T08:48:55.090Z,1002.3
2018-08-11T08:49:56.484Z,1002.3
2018-08-11T08:50:57.882Z,1002.2
2018-08-11T08:51:59.276Z,1002.1
2018-08-11T08:53:00.678Z,1002.2
2018-08-11T08:54:02.074Z,1002.1
2018-08-11T08:55:03.475Z,1002.2
2018-08-11T08:56:04.872Z,1002.2
2018-08-11T08:57:06.266Z,1002.2
2018-08-11T08:58:07.662Z,1002.2
2018-08-11T08:59:09.129Z,1002.2
2018-08-11T09:00:10.469Z,1002.1
2018-08-11T09:01:11.866Z,1002.2
2018-08-11T09:02:13.282Z,1002.1
2018-08-11T09:03:14.687Z,1002.1
2018-08-11T09:04:16.067Z,1002.0
2018-08-11T09:05:17.517Z,1002.0
2018-08-11T09:06:18.914Z,1002.1
2018-08-11T09:07:20.342Z,1002.0
2018-08-11T09:08:21.731Z,1002.1
2018-08-11T09:09:23.121Z,1002.0
2018-08-11T09:10:24.516Z,1002.0
2018-08-11T09:11:25.916Z,1002.1
2018-08-11T09:12:27.319Z,1002.0
2018-08-11T09:13:28.736Z,1002.0
2018-08-11T09:14:30.130Z,1002.0
2018-08-11T09:15:31.526Z,1002.0
2018-08-11T09:16:32.922Z,1002.0
2018-08-11T09:17:34.333Z,1002.0
2018-08-11T09:18:35.789Z,1001.9
2018-08-11T09:19:37.183Z,1001.9
2018-08-11T09:20:38.568Z,1002.1
2018-08-11T09:21:39.965Z,1002.0
2018-08-11T09:22:41.372Z,1002.0
2018-08-11T09:23:42.777Z,1002.0
2018-08-11T09:24:44.165Z,1002.0
2018-08-11T09:25:45.551Z,1002.0
2018-08-11T09:26:48.378Z,1001.9
2018-08-11T09:27:51.353Z,1002.0
2018-08-11T09:28:52.738Z,1002.0
2018-08-11T09:29:54.120Z,1002.0
2018-08-11T09:30:55.497Z,1002.0
2018-08-11T09:31:56.880Z,1002.0
2018-08-11T09:32:58.260Z,1002.0
2018-08-11T09:33:59.661Z,1002.0
2018-08-11T09:35:01.054Z,1002.0
2018-08-11T09:36:02.443Z,1001.9
2018-08-11T09:37:03.834Z,1001.9
2018-08-11T09:38:05.222Z,1002.0
2018-08-11T09:39:06.630Z,1002.0
2018-08-11T09:40:08.695Z,1002.0
2018-08-11T09:41:10.074Z,1002.0
2018-08-11T09:42:11.448Z,1002.0
2018-08-11T09:43:12.865Z,1001.9
2018-08-11T09:44:14.255Z,1002.0
2018-08-11T09:45:15.644Z,1001.9
2018-08-11T09:46:17.021Z,1001.9
2018-08-11T09:47:18.392Z,1001.9
2018-08-11T09:48:19.803Z,1002.0
2018-08-11T09:49:21.192Z,1001.9
2018-08-11T09:50:22.585Z,1001.9
2018-08-11T09:51:23.977Z,1001.9
2018-08-11T09:52:25.363Z,1001.9
2018-08-11T09:53:26.749Z,1001.9
2018-08-11T09:54:28.138Z,1001.8
2018-08-11T09:55:30.308Z,1001.9
2018-08-11T09:56:31.697Z,1001.9
2018-08-11T09:57:33.092Z,1001.9
2018-08-11T09:58:34.504Z,1001.9
2018-08-11T09:59:35.865Z,1001.9
2018-08-11T10:00:37.269Z,1001.8
2018-08-11T10:01:38.652Z,1001.9
2018-08-11T10:02:40.058Z,1001.9
2018-08-11T10:03:41.489Z,1001.9
2018-08-11T10:04:42.907Z,1001.8
2018-08-11T10:05:44.307Z,1001.8
2018-08-11T10:06:45.726Z,1001.8
2018-08-11T10:07:47.140Z,1001.8
2018-08-11T10:08:49.493Z,1001.8
2018-08-11T10:09:50.963Z,1001.8
2018-08-11T10:10:52.368Z,1001.8
2018-08-11T10:11:53.752Z,1001.9
2018-08-11T10:12:55.172Z,1001.8
2018-08-11T10:13:56.596Z,1001.9
2018-08-11T10:14:58.021Z,1001.8
2018-08-11T10:15:59.421Z,1001.8
2018-08-11T10:17:00.822Z,1001.8
2018-08-11T10:18:02.269Z,1001.7
2018-08-11T10:19:03.649Z,1001.8
2018-08-11T10:20:05.263Z,1001.8
2018-08-11T10:21:06.709Z,1001.8
2018-08-11T10:22:08.123Z,1001.8
2018-08-11T10:23:09.528Z,1001.8
2018-08-11T10:24:10.914Z,1001.8
2018-08-11T10:25:12.327Z,1001.8
2018-08-11T10:26:13.719Z,1001.8
2018-08-11T10:27:15.111Z,1001.7
2018-08-11T10:28:16.487Z,1001.6
2018-08-11T10:29:17.877Z,1001.7
2018-08-11T10:30:19.277Z,1001.7
2018-08-11T10:31:20.688Z,1001.7
2018-08-11T10:32:22.077Z,1001.7
2018-08-11T10:33:23.488Z,1001.7
2018-08-11T10:34:24.986Z,1001.6
2018-08-11T10:35:26.404Z,1001.7
2018-08-11T10:36:27.836Z,1001.7
2018-08-11T10:37:29.251Z,1001.6
2018-08-11T10:38:30.641Z,1001.6
2018-08-11T10:39:32.067Z,1001.6
2018-08-11T10:40:33.459Z,1001.6
2018-08-11T10:41:34.946Z,1001.5
2018-08-11T10:42:37.900Z,1001.6
2018-08-11T10:43:39.301Z,1001.6
2018-08-11T10:44:40.709Z,1001.6
2018-08-11T10:45:43.203Z,1001.6
2018-08-11T10:46:44.687Z,1001.6
2018-08-11T10:47:46.112Z,1001.6
2018-08-11T10:48:47.511Z,1001.6
2018-08-11T10:49:48.907Z,1001.6
2018-08-11T10:50:50.298Z,1001.6
2018-08-11T10:51:51.673Z,1001.6
2018-08-11T10:52:53.068Z,1001.6
2018-08-11T10:53:54.480Z,1001.6
2018-08-11T10:54:55.868Z,1001.6
2018-08-11T10:55:57.350Z,1001.6
2018-08-11T10:56:58.804Z,1001.6
2018-08-11T10:58:03.418Z,1001.6
2018-08-11T10:59:06.386Z,1001.5
2018-08-11T11:00:08.798Z,1001.5
2018-08-11T11:01:10.620Z,1001.5
2018-08-11T11:02:12.106Z,1001.4
2018-08-11T11:03:13.641Z,1001.4
2018-08-11T11:04:15.304Z,1001.4
2018-08-11T11:06:18.515Z,1001.4
2018-08-11T11:07:20.065Z,1001.5
2018-08-11T11:08:22.127Z,1001.4
2018-08-11T11:09:23.535Z,1001.4
2018-08-11T11:10:25.391Z,1001.4
2018-08-11T11:11:28.230Z,1001.3
2018-08-11T11:13:10.601Z,1001.4
2018-08-11T11:14:12.025Z,1001.4
2018-08-11T11:15:13.408Z,1001.3
2018-08-11T11:16:14.870Z,1001.3
2018-08-11T11:17:16.276Z,1001.4
2018-08-11T11:18:17.678Z,1001.4
2018-08-11T11:19:19.074Z,1001.3
2018-08-11T11:20:20.479Z,1001.3
2018-08-11T11:21:21.893Z,1001.4
2018-08-11T11:22:23.284Z,1001.4
2018-08-11T11:23:24.660Z,1001.4
2018-08-11T11:24:26.037Z,1001.4
2018-08-11T11:25:27.569Z,1001.4
2018-08-11T11:26:29.710Z,1001.4
2018-08-11T11:27:31.915Z,1001.3
2018-08-11T11:28:33.318Z,1001.3
2018-08-11T11:30:39.357Z,1001.2
2018-08-11T11:31:42.780Z,1001.2
2018-08-11T11:32:46.180Z,1001.3
2018-08-11T11:33:48.304Z,1001.1
2018-08-11T11:34:50.425Z,1001.2
2018-08-11T11:35:52.496Z,1001.3
2018-08-11T11:37:33.414Z,1001.2
2018-08-11T11:38:34.799Z,1001.3
2018-08-11T11:39:56.821Z,1001.2
2018-08-11T11:40:58.210Z,1001.1
2018-08-11T11:41:59.631Z,1001.2
2018-08-11T11:43:01.089Z,1001.1
2018-08-11T11:44:02.489Z,1001.2
2018-08-11T11:45:03.937Z,1001.2
2018-08-11T11:46:05.325Z,1001.2
2018-08-11T11:47:06.786Z,1001.2
2018-08-11T11:48:08.163Z,1001.2
2018-08-11T11:49:09.569Z,1001.2
2018-08-11T11:50:11.780Z,1001.2
2018-08-11T11:51:13.156Z,1001.1
2018-08-11T11:52:14.539Z,1001.2
2018-08-11T11:53:15.953Z,1001.1
2018-08-11T11:54:17.377Z,1001.2
2018-08-11T11:55:20.750Z,1001.2
2018-08-11T11:56:22.209Z,1001.1
2018-08-11T11:57:23.624Z,1001.1
2018-08-11T11:58:25.061Z,1001.1
2018-08-11T11:59:26.488Z,1001.1
2018-08-11T12:00:27.946Z,1001.1
2018-08-11T12:01:29.394Z,1001.0
2018-08-11T12:02:30.844Z,1001.1
2018-08-11T12:03:32.580Z,1001.1
2018-08-11T12:04:34.956Z,1001.1
2018-08-11T12:05:37.855Z,1001.2
2018-08-11T12:06:39.245Z,1001.1
2018-08-11T12:07:40.921Z,1001.1
2018-08-11T12:08:43.298Z,1001.1
2018-08-11T12:09:44.618Z,1001.0
2018-08-11T12:10:46.016Z,1001.1
2018-08-11T12:11:47.424Z,1001.1
2018-08-11T12:12:48.796Z,1001.1
2018-08-11T12:13:50.251Z,1001.0
2018-08-11T12:14:52.010Z,1001.0
2018-08-11T12:15:53.360Z,1001.0
2018-08-11T12:16:54.750Z,1000.9
2018-08-11T12:17:56.136Z,1001.0
2018-08-11T12:18:57.539Z,1001.1
2018-08-11T12:19:58.941Z,1001.0
2018-08-11T12:21:00.342Z,1000.9
2018-08-11T12:22:01.746Z,1000.9
2018-08-11T12:23:03.889Z,1000.9
2018-08-11T12:24:05.390Z,1000.9
2018-08-11T12:25:06.781Z,1000.8
2018-08-11T12:26:08.258Z,1000.9
2018-08-11T12:27:09.641Z,1000.8
2018-08-11T12:28:11.040Z,1000.9
2018-08-11T12:29:12.439Z,1000.8
2018-08-11T12:30:13.839Z,1000.9
2018-08-11T12:31:15.284Z,1000.9
2018-08-11T12:32:16.679Z,1000.8
2018-08-11T12:33:18.092Z,1000.9
2018-08-11T12:34:19.502Z,1000.9
2018-08-11T12:35:20.899Z,1000.9
2018-08-11T12:36:22.420Z,1000.9
2018-08-11T12:37:23.796Z,1000.9
2018-08-11T12:38:25.286Z,1000.9
2018-08-11T12:39:26.705Z,1000.9
2018-08-11T12:40:29.535Z,1000.9
2018-08-11T12:41:32.587Z,1000.9
2018-08-11T12:42:36.432Z,1000.9
2018-08-11T12:43:42.353Z,1000.8
2018-08-11T12:44:44.462Z,1000.8
2018-08-11T12:45:47.465Z,1000.7
2018-08-11T12:46:51.425Z,1000.7
2018-08-11T12:47:52.818Z,1000.8
2018-08-11T12:48:54.213Z,1000.7
2018-08-11T12:49:55.627Z,1000.7
2018-08-11T12:50:57.020Z,1000.7